createdAt,value
2018-10-07T00:01:19.809Z,92.80
2018-10-07T00:03:49.690Z,92.90
2018-10-07T00:06:19.758Z,92.80
2018-10-07T00:08:49.704Z,92.90
2018-10-07T00:11:19.805Z,92.60
2018-10-07T00:13:49.666Z,93.10
2018-10-07T00:16:19.764Z,92.60
2018-10-07T00:18:49.823Z,92.50
2018-10-07T00:21:19.886Z,92.70
2018-10-07T00:23:49.650Z,92.70
2018-10-07T00:26:19.677Z,92.60
2018-10-07T00:28:49.718Z,92.80
2018-10-07T00:31:19.771Z,92.90
2018-10-07T00:33:49.740Z,93.20
2018-10-07T00:36:19.803Z,93.30
2018-10-07T00:38:49.698Z,93.20
2018-10-07T00:41:19.717Z,93.30
2018-10-07T00:43:49.785Z,93.10
2018-10-07T00:46:19.682Z,93.10
2018-10-07T00:48:49.744Z,93.00
2018-10-07T00:51:19.845Z,92.80
2018-10-07T00:53:49.683Z,92.70
2018-10-07T00:56:19.736Z,92.50
2018-10-07T00:58:49.746Z,92.80
2018-10-07T01:01:19.770Z,92.60
2018-10-07T01:03:49.818Z,92.60
2018-10-07T01:06:19.740Z,92.70
2018-10-07T01:08:49.753Z,92.60
2018-10-07T01:11:19.751Z,92.60
2018-10-07T01:13:49.800Z,92.60
2018-10-07T01:16:19.853Z,92.40
2018-10-07T01:18:49.812Z,92.60
2018-10-07T01:21:19.901Z,92.40
2018-10-07T01:23:49.818Z,92.00
2018-10-07T01:26:19.821Z,92.30
2018-10-07T01:28:56.127Z,92.00
2018-10-07T01:31:25.608Z,92.40
2018-10-07T01:33:54.979Z,92.10
2018-10-07T01:36:24.412Z,92.20
2018-10-07T01:38:53.685Z,91.90
2018-10-07T01:41:23.044Z,91.90
2018-10-07T01:43:52.369Z,92.00
2018-10-07T01:46:21.789Z,92.00
2018-10-07T01:48:51.128Z,92.10
2018-10-07T01:51:20.479Z,91.80
2018-10-07T01:53:49.859Z,91.80
2018-10-07T01:56:19.998Z,92.00
2018-10-07T01:58:49.859Z,91.70
2018-10-07T02:01:19.869Z,91.90
2018-10-07T02:03:49.859Z,91.90
2018-10-07T02:06:19.946Z,92.10
2018-10-07T02:08:49.900Z,91.90
2018-10-07T02:11:20.017Z,91.50
2018-10-07T02:13:49.894Z,91.80
2018-10-07T02:16:19.977Z,91.50
2018-10-07T02:18:50.028Z,91.70
2018-10-07T02:21:19.941Z,91.50
2018-10-07T02:23:49.902Z,91.40
2018-10-07T02:26:20.086Z,91.30
2018-10-07T02:28:49.977Z,91.40
2018-10-07T02:31:19.991Z,91.40
2018-10-07T02:33:50.112Z,91.30
2018-10-07T02:36:19.907Z,91.10
2018-10-07T02:38:49.897Z,91.50
2018-10-07T02:41:19.965Z,91.60
2018-10-07T02:43:49.917Z,91.40
2018-10-07T02:46:19.976Z,91.30
2018-10-07T02:48:49.953Z,91.20
2018-10-07T02:51:20.051Z,91.00
2018-10-07T02:53:50.082Z,91.60
2018-10-07T02:56:20.131Z,91.70
2018-10-07T02:58:50.051Z,91.40
2018-10-07T03:01:20.070Z,91.50
2018-10-07T03:03:50.054Z,91.70
2018-10-07T03:06:20.033Z,91.50
2018-10-07T03:08:50.037Z,91.60
2018-10-07T03:11:20.093Z,91.70
2018-10-07T03:13:50.076Z,91.60
2018-10-07T03:16:20.185Z,91.60
2018-10-07T03:18:50.064Z,91.30
2018-10-07T03:21:20.103Z,91.20
2018-10-07T03:23:50.111Z,91.80
2018-10-07T03:26:20.058Z,91.40
2018-10-07T03:28:50.050Z,91.40
2018-10-07T03:31:20.114Z,91.50
2018-10-07T03:33:50.054Z,91.70
2018-10-07T03:36:20.079Z,91.50
2018-10-07T03:38:50.137Z,91.50
2018-10-07T03:41:20.199Z,91.50
2018-10-07T03:43:50.163Z,91.30
2018-10-07T03:46:20.183Z,91.30
2018-10-07T03:48:50.077Z,91.30
2018-10-07T03:51:20.076Z,91.70
2018-10-07T03:53:50.147Z,91.30
2018-10-07T03:56:20.143Z,91.20
2018-10-07T03:58:50.169Z,91.30
2018-10-07T04:01:20.258Z,91.30
2018-10-07T04:03:50.128Z,91.20
2018-10-07T04:06:20.192Z,91.40
2018-10-07T04:08:50.150Z,91.30
2018-10-07T04:11:20.198Z,91.30
2018-10-07T04:13:50.269Z,91.30
2018-10-07T04:16:20.224Z,91.00
2018-10-07T04:18:50.269Z,90.80
2018-10-07T04:21:20.238Z,90.80
2018-10-07T04:23:50.216Z,90.70
2018-10-07T04:26:20.263Z,90.80
2018-10-07T04:28:50.195Z,90.80
2018-10-07T04:31:20.265Z,90.70
2018-10-07T04:33:50.294Z,91.10
2018-10-07T04:36:20.290Z,90.80
2018-10-07T04:38:50.301Z,91.00
2018-10-07T04:41:20.237Z,90.90
2018-10-07T04:43:50.352Z,90.80
2018-10-07T04:46:20.400Z,91.20
2018-10-07T04:48:50.282Z,90.70
2018-10-07T04:51:20.505Z,90.60
2018-10-07T04:53:50.217Z,90.50
2018-10-07T04:56:20.291Z,90.50
2018-10-07T04:58:50.311Z,90.70
2018-10-07T05:01:20.239Z,90.70
2018-10-07T05:03:50.325Z,90.60
2018-10-07T05:06:21.896Z,90.50
2018-10-07T05:08:51.337Z,90.30
2018-10-07T05:11:20.726Z,90.20
2018-10-07T05:13:53.903Z,90.40
2018-10-07T05:16:33.867Z,90.30
2018-10-07T05:19:03.339Z,90.70
2018-10-07T05:21:32.707Z,90.30
2018-10-07T05:24:02.178Z,90.60
2018-10-07T05:26:31.571Z,90.50
2018-10-07T05:29:00.920Z,90.20
2018-10-07T05:31:30.332Z,90.30
2018-10-07T05:33:59.634Z,90.20
2018-10-07T05:36:29.036Z,90.30
2018-10-07T05:38:58.347Z,90.50
2018-10-07T05:41:27.759Z,90.10
2018-10-07T05:43:57.150Z,90.60
2018-10-07T05:46:26.491Z,90.10
2018-10-07T05:48:55.892Z,90.20
2018-10-07T05:51:25.323Z,90.20
2018-10-07T05:53:54.611Z,90.10
2018-10-07T05:56:24.033Z,90.10
2018-10-07T05:58:55.780Z,90.10
2018-10-07T06:01:42.049Z,90.20
2018-10-07T06:04:36.489Z,90.40
2018-10-07T06:07:05.884Z,90.30
2018-10-07T06:09:36.737Z,90.60
2018-10-07T06:12:06.338Z,90.10
2018-10-07T06:14:52.772Z,90.10
2018-10-07T06:17:22.065Z,90.20
2018-10-07T06:19:51.377Z,90.90
2018-10-07T06:22:21.094Z,91.00
2018-10-07T06:24:50.485Z,90.90
2018-10-07T06:27:20.443Z,90.30
2018-10-07T06:29:50.621Z,90.20
2018-10-07T06:32:20.415Z,90.30
2018-10-07T06:34:50.461Z,91.10
2018-10-07T06:37:20.494Z,90.40
2018-10-07T06:39:50.523Z,91.00
2018-10-07T06:42:20.480Z,90.40
2018-10-07T06:44:50.639Z,90.50
2018-10-07T06:47:20.538Z,90.00
2018-10-07T06:49:50.510Z,90.10
2018-10-07T06:52:20.567Z,90.30
2018-10-07T06:54:50.557Z,90.00
2018-10-07T06:57:20.507Z,90.00
2018-10-07T06:59:50.640Z,90.30
2018-10-07T07:02:20.610Z,90.10
2018-10-07T07:04:53.543Z,89.00
2018-10-07T07:07:22.939Z,88.60
2018-10-07T07:09:52.379Z,88.80
2018-10-07T07:12:21.721Z,88.30
2018-10-07T07:14:51.053Z,87.50
2018-10-07T07:17:20.566Z,88.30
2018-10-07T07:19:50.558Z,86.90
2018-10-07T07:22:20.579Z,85.40
2018-10-07T07:24:50.612Z,85.30
2018-10-07T07:27:20.554Z,84.90
2018-10-07T07:29:50.552Z,84.60
2018-10-07T07:32:20.775Z,84.50
2018-10-07T07:34:50.537Z,84.50
2018-10-07T07:37:20.534Z,83.10
2018-10-07T07:39:57.231Z,83.10
2018-10-07T07:42:26.664Z,82.80
2018-10-07T07:44:55.965Z,82.60
2018-10-07T07:47:25.392Z,81.70
2018-10-07T07:49:54.740Z,80.00
2018-10-07T07:52:24.109Z,79.50
2018-10-07T07:54:53.542Z,80.30
2018-10-07T07:57:22.925Z,79.60
2018-10-07T07:59:52.386Z,78.30
2018-10-07T08:02:21.726Z,77.70
2018-10-07T08:04:51.105Z,77.00
2018-10-07T08:07:20.736Z,76.80
2018-10-07T08:09:50.645Z,77.10
2018-10-07T08:12:20.795Z,77.20
2018-10-07T08:14:50.745Z,77.80
2018-10-07T08:17:20.778Z,75.70
2018-10-07T08:19:50.753Z,74.60
2018-10-07T08:22:20.717Z,76.40
2018-10-07T08:24:50.680Z,75.30
2018-10-07T08:27:20.728Z,73.90
2018-10-07T08:29:50.736Z,74.60
2018-10-07T08:32:20.847Z,74.80
2018-10-07T08:34:50.706Z,74.10
2018-10-07T08:42:24.037Z,74.20
2018-10-07T08:44:53.474Z,73.40
2018-10-07T08:47:22.800Z,73.00
2018-10-07T08:49:52.483Z,72.40
2018-10-07T08:52:21.798Z,72.90
2018-10-07T08:54:51.129Z,72.70
2018-10-07T08:57:20.796Z,74.10
2018-10-07T08:59:50.766Z,71.90
2018-10-07T09:02:20.868Z,72.70
2018-10-07T09:04:50.793Z,72.30
2018-10-07T09:07:20.836Z,71.70
2018-10-07T09:09:50.742Z,72.70
2018-10-07T09:12:20.822Z,71.30
2018-10-07T09:14:50.778Z,70.90
2018-10-07T09:17:20.680Z,70.10
2018-10-07T09:19:50.886Z,71.00
2018-10-07T09:22:20.922Z,70.50
2018-10-07T09:24:50.788Z,70.90
2018-10-07T09:27:20.882Z,69.20
2018-10-07T09:29:51.035Z,68.50
2018-10-07T09:32:20.879Z,68.50
2018-10-07T09:34:50.862Z,66.50
2018-10-07T09:37:20.923Z,67.70
2018-10-07T09:39:50.746Z,68.10
2018-10-07T09:42:20.837Z,67.20
2018-10-07T09:44:50.869Z,68.00
2018-10-07T09:47:20.929Z,67.40
2018-10-07T09:49:51.080Z,68.00
2018-10-07T09:52:20.907Z,68.40
2018-10-07T09:54:50.886Z,68.10
2018-10-07T09:57:20.900Z,69.60
2018-10-07T09:59:50.866Z,69.40
2018-10-07T10:02:20.948Z,68.20
2018-10-07T10:04:51.033Z,68.70
2018-10-07T10:07:20.894Z,69.80
2018-10-07T10:09:50.862Z,71.20
2018-10-07T10:12:20.957Z,69.70
2018-10-07T10:14:50.979Z,68.80
2018-10-07T10:17:23.165Z,68.30
2018-10-07T10:20:05.318Z,67.00
2018-10-07T10:22:54.060Z,67.60
2018-10-07T10:25:36.237Z,64.90
2018-10-07T10:28:18.723Z,64.30
2018-10-07T10:31:38.885Z,65.90
2018-10-07T10:34:52.783Z,65.40
2018-10-07T10:37:32.040Z,65.00
2018-10-07T10:40:03.081Z,64.00
2018-10-07T10:42:52.995Z,63.60
2018-10-07T10:45:34.618Z,64.90
2018-10-07T10:48:26.533Z,62.90
2018-10-07T10:51:06.892Z,61.60
2018-10-07T10:53:43.803Z,62.20
2018-10-07T10:56:25.585Z,61.30
2018-10-07T11:01:10.229Z,63.70
2018-10-07T11:04:09.849Z,62.00
2018-10-07T11:07:06.730Z,61.60
2018-10-07T11:09:43.060Z,62.40
2018-10-07T11:13:22.902Z,61.60
2018-10-07T11:16:07.743Z,60.50
2018-10-07T11:20:49.501Z,59.40
2018-10-07T11:23:35.857Z,60.40
2018-10-07T11:26:21.727Z,59.10
2018-10-07T11:29:08.228Z,59.10
2018-10-07T11:32:31.067Z,57.60
2018-10-07T11:37:19.752Z,59.20
2018-10-07T11:42:11.004Z,60.00
2018-10-07T11:44:57.307Z,57.50
2018-10-07T11:48:43.190Z,59.00
2018-10-07T11:51:54.615Z,59.70
2018-10-07T11:54:53.410Z,60.10
2018-10-07T11:57:22.880Z,60.20
2018-10-07T11:59:52.270Z,61.40
2018-10-07T12:02:21.762Z,60.60
2018-10-07T12:04:51.150Z,62.50
2018-10-07T12:07:21.096Z,61.00
2018-10-07T12:09:51.153Z,59.70
2018-10-07T12:12:21.129Z,60.40
2018-10-07T12:14:51.165Z,60.90
2018-10-07T12:17:21.141Z,62.40
2018-10-07T12:19:51.221Z,61.70
2018-10-07T12:22:21.030Z,62.90
2018-10-07T12:24:51.293Z,62.20
2018-10-07T12:27:21.087Z,62.20
2018-10-07T12:29:51.087Z,62.80
2018-10-07T12:32:21.165Z,61.10
2018-10-07T12:34:51.137Z,61.00
2018-10-07T12:37:21.261Z,60.90
2018-10-07T12:39:51.129Z,61.50
2018-10-07T12:42:21.230Z,61.90
2018-10-07T12:44:51.122Z,62.40
2018-10-07T12:47:21.190Z,64.10
2018-10-07T12:49:51.189Z,63.80
2018-10-07T12:52:21.233Z,64.20
2018-10-07T12:54:51.249Z,61.80
2018-10-07T12:57:21.233Z,61.30
2018-10-07T12:59:51.242Z,61.10
2018-10-07T13:02:21.137Z,61.40
2018-10-07T13:04:51.239Z,61.20
2018-10-07T13:07:21.285Z,61.10
2018-10-07T13:09:51.160Z,61.30
2018-10-07T13:12:21.165Z,62.20
2018-10-07T13:14:51.428Z,62.60
2018-10-07T13:17:21.196Z,63.00
2018-10-07T13:19:51.227Z,62.90
2018-10-07T13:22:21.273Z,63.00
2018-10-07T13:24:51.310Z,64.60
2018-10-07T13:27:21.426Z,64.40
2018-10-07T13:29:51.406Z,63.90
2018-10-07T13:32:21.237Z,65.30
2018-10-07T13:34:51.260Z,65.60
2018-10-07T13:37:21.337Z,66.00
2018-10-07T13:39:51.343Z,65.70
2018-10-07T13:42:21.437Z,64.70
2018-10-07T13:44:51.369Z,65.60
2018-10-07T13:47:21.284Z,66.10
2018-10-07T13:49:51.399Z,65.40
2018-10-07T13:52:21.304Z,64.40
2018-10-07T13:54:51.341Z,65.20
2018-10-07T13:57:21.269Z,65.50
2018-10-07T13:59:51.312Z,65.20
2018-10-07T14:02:21.389Z,65.10
2018-10-07T14:04:51.350Z,65.10
2018-10-07T14:07:21.325Z,65.30
2018-10-07T14:09:51.410Z,66.00
2018-10-07T14:12:21.571Z,66.10
2018-10-07T14:14:51.365Z,65.50
2018-10-07T14:17:21.378Z,65.80
2018-10-07T14:19:51.420Z,66.60
2018-10-07T14:22:21.469Z,67.00
2018-10-07T14:24:51.398Z,66.90
2018-10-07T14:27:21.502Z,67.00
2018-10-07T14:29:51.337Z,67.50
2018-10-07T14:32:21.318Z,67.60
2018-10-07T14:34:51.353Z,67.80
2018-10-07T14:37:21.510Z,68.10
2018-10-07T14:39:51.346Z,68.20
2018-10-07T14:42:21.449Z,68.10
2018-10-07T14:44:51.365Z,68.30
2018-10-07T14:47:21.364Z,68.60
2018-10-07T14:49:51.410Z,69.20
2018-10-07T14:52:21.501Z,69.40
2018-10-07T14:54:51.527Z,69.60
2018-10-07T14:57:21.489Z,69.20
2018-10-07T14:59:51.499Z,69.70
2018-10-07T15:02:21.434Z,69.50
2018-10-07T15:04:51.404Z,69.60
2018-10-07T15:07:21.417Z,69.80
2018-10-07T15:09:51.368Z,69.60
2018-10-07T15:12:21.449Z,69.50
2018-10-07T15:14:51.479Z,68.70
2018-10-07T15:17:21.339Z,68.80
2018-10-07T15:19:51.451Z,68.00
2018-10-07T15:22:21.560Z,68.20
2018-10-07T15:24:51.405Z,68.60
2018-10-07T15:27:21.618Z,68.90
2018-10-07T15:29:51.544Z,69.20
2018-10-07T15:32:21.553Z,68.90
2018-10-07T15:34:51.486Z,69.10
2018-10-07T15:37:21.738Z,69.50
2018-10-07T15:39:51.579Z,69.60
2018-10-07T15:42:21.555Z,69.40
2018-10-07T15:44:51.415Z,69.80
2018-10-07T15:47:21.481Z,69.70
2018-10-07T15:49:51.469Z,69.20
2018-10-07T15:52:21.528Z,70.10
2018-10-07T15:54:51.579Z,70.20
2018-10-07T15:57:21.594Z,70.90
2018-10-07T15:59:51.612Z,70.40
2018-10-07T16:02:21.492Z,71.10
2018-10-07T16:04:51.761Z,70.80
2018-10-07T16:07:21.558Z,71.10
2018-10-07T16:09:51.521Z,72.00
2018-10-07T16:12:21.561Z,71.80
2018-10-07T16:14:51.579Z,71.80
2018-10-07T16:17:21.735Z,72.20
2018-10-07T16:19:51.642Z,72.30
2018-10-07T16:22:21.569Z,72.30
2018-10-07T16:24:51.581Z,72.60
2018-10-07T16:27:21.723Z,72.60
2018-10-07T16:29:51.578Z,73.10
2018-10-07T16:32:21.662Z,73.50
2018-10-07T16:34:51.674Z,73.40
2018-10-07T16:37:21.972Z,74.20
2018-10-07T16:39:51.593Z,73.50
2018-10-07T16:42:21.814Z,73.30
2018-10-07T16:44:51.648Z,74.10
2018-10-07T16:47:21.650Z,73.70
2018-10-07T16:49:51.626Z,73.90
2018-10-07T16:52:21.908Z,73.90
2018-10-07T16:54:51.663Z,74.40
2018-10-07T16:57:21.624Z,74.50
2018-10-07T16:59:51.648Z,74.10
2018-10-07T17:02:21.666Z,74.50
2018-10-07T17:04:51.786Z,75.20
2018-10-07T17:07:21.735Z,74.90
2018-10-07T17:09:51.746Z,74.80
2018-10-07T17:12:21.605Z,74.90
2018-10-07T17:14:51.681Z,75.00
2018-10-07T17:17:21.670Z,75.10
2018-10-07T17:19:51.703Z,75.20
2018-10-07T17:22:21.861Z,76.00
2018-10-07T17:24:51.643Z,75.60
2018-10-07T17:27:21.750Z,75.40
2018-10-07T17:29:51.675Z,75.60
2018-10-07T17:32:21.658Z,75.90
2018-10-07T17:34:51.708Z,75.80
2018-10-07T17:37:21.900Z,75.70
2018-10-07T17:39:51.895Z,76.00
2018-10-07T17:42:21.727Z,76.00
2018-10-07T17:44:51.984Z,76.20
2018-10-07T17:47:21.822Z,86.70
2018-10-07T17:49:51.986Z,74.70
2018-10-07T17:52:21.757Z,74.60
2018-10-07T17:54:51.789Z,74.80
2018-10-07T17:57:21.781Z,75.20
2018-10-07T17:59:52.124Z,76.60
2018-10-07T18:02:21.849Z,76.40
2018-10-07T18:04:51.806Z,76.80
2018-10-07T18:07:21.852Z,77.10
2018-10-07T18:09:51.855Z,77.30
2018-10-07T18:12:21.826Z,77.60
2018-10-07T18:14:51.955Z,77.60
2018-10-07T18:17:21.841Z,77.70
2018-10-07T18:19:51.943Z,77.80
2018-10-07T18:22:21.843Z,78.00
2018-10-07T18:24:51.932Z,78.00
2018-10-07T18:27:21.892Z,78.10
2018-10-07T18:29:51.969Z,78.20
2018-10-07T18:32:22.027Z,78.40
2018-10-07T18:34:51.898Z,78.20
2018-10-07T18:37:21.970Z,78.30
2018-10-07T18:39:52.264Z,78.40
2018-10-07T18:42:22.010Z,78.30
2018-10-07T18:44:52.245Z,78.30
2018-10-07T18:47:21.994Z,78.80
2018-10-07T18:49:52.176Z,78.60
2018-10-07T18:52:21.910Z,78.70
2018-10-07T18:54:51.997Z,78.90
2018-10-07T18:57:21.946Z,78.90
2018-10-07T18:59:52.011Z,78.80
2018-10-07T19:02:22.283Z,78.60
2018-10-07T19:04:52.122Z,78.70
2018-10-07T19:07:21.935Z,78.60
2018-10-07T19:09:51.962Z,78.50
2018-10-07T19:12:22.123Z,78.60
2018-10-07T19:14:51.946Z,78.90
2018-10-07T19:17:22.094Z,78.90
2018-10-07T19:19:52.034Z,78.60
2018-10-07T19:22:22.261Z,78.60
2018-10-07T19:24:52.057Z,78.50
2018-10-07T19:27:22.010Z,78.50
2018-10-07T19:29:52.219Z,78.70
2018-10-07T19:32:22.249Z,79.30
2018-10-07T19:34:52.085Z,79.10
2018-10-07T19:37:22.322Z,79.30
2018-10-07T19:39:52.048Z,79.20
2018-10-07T19:42:22.217Z,79.30
2018-10-07T19:44:52.231Z,79.30
2018-10-07T19:47:22.140Z,79.60
2018-10-07T19:49:52.078Z,79.70
2018-10-07T19:52:22.197Z,79.70
2018-10-07T19:54:52.070Z,79.50
2018-10-07T19:57:22.062Z,79.40
2018-10-07T19:59:52.313Z,79.40
2018-10-07T20:02:22.105Z,79.40
2018-10-07T20:04:52.179Z,79.50
2018-10-07T20:07:22.174Z,79.50
2018-10-07T20:09:52.122Z,79.50
2018-10-07T20:12:22.229Z,79.40
2018-10-07T20:14:52.224Z,79.90
2018-10-07T20:17:22.253Z,79.90
2018-10-07T20:19:52.133Z,79.90
2018-10-07T20:22:22.369Z,79.60
2018-10-07T20:24:52.162Z,79.60
2018-10-07T20:27:22.213Z,79.80
2018-10-07T20:29:52.273Z,79.90
2018-10-07T20:32:22.199Z,80.00
2018-10-07T20:34:52.166Z,80.20
2018-10-07T20:37:22.304Z,80.10
2018-10-07T20:39:52.249Z,80.00
2018-10-07T20:42:22.304Z,79.70
2018-10-07T20:44:52.298Z,80.10
2018-10-07T20:47:22.221Z,80.30
2018-10-07T20:49:52.424Z,80.10
2018-10-07T20:52:22.594Z,80.00
2018-10-07T20:54:52.276Z,79.80
2018-10-07T20:57:22.296Z,80.00
2018-10-07T20:59:52.359Z,80.20
2018-10-07T21:02:22.271Z,80.10
2018-10-07T21:04:52.409Z,80.20
2018-10-07T21:07:22.258Z,80.30
2018-10-07T21:09:52.326Z,80.40
2018-10-07T21:12:22.340Z,81.10
2018-10-07T21:14:52.439Z,80.50
2018-10-07T21:17:22.411Z,80.40
2018-10-07T21:19:52.373Z,80.20
2018-10-07T21:22:22.307Z,80.50
2018-10-07T21:24:52.225Z,80.60
2018-10-07T21:27:22.295Z,80.60
2018-10-07T21:29:52.419Z,80.50
2018-10-07T21:32:22.316Z,80.60
2018-10-07T21:34:52.399Z,80.50
2018-10-07T21:37:22.326Z,80.30
2018-10-07T21:39:52.431Z,81.30
2018-10-07T21:42:22.282Z,80.50
2018-10-07T21:44:52.410Z,80.40
2018-10-07T21:47:22.418Z,80.50
2018-10-07T21:49:52.398Z,80.70
2018-10-07T21:52:22.404Z,80.70
2018-10-07T21:54:52.369Z,80.80
2018-10-07T21:57:22.326Z,80.70
2018-10-07T21:59:52.317Z,80.70
2018-10-07T22:02:23.150Z,80.80
2018-10-07T22:04:52.433Z,81.10
2018-10-07T22:07:22.451Z,80.90
2018-10-07T22:09:52.373Z,80.80
2018-10-07T22:12:22.422Z,81.10
2018-10-07T22:14:52.401Z,81.00
2018-10-07T22:17:22.472Z,80.90
2018-10-07T22:19:52.478Z,81.30
2018-10-07T22:22:22.476Z,81.30
2018-10-07T22:24:52.302Z,81.20
2018-10-07T22:27:22.511Z,81.20
2018-10-07T22:29:52.435Z,81.40
2018-10-07T22:32:22.428Z,81.10
2018-10-07T22:34:52.470Z,81.10
2018-10-07T22:37:22.666Z,81.20
2018-10-07T22:39:52.469Z,81.20
2018-10-07T22:42:22.391Z,81.30
2018-10-07T22:44:52.489Z,81.40
2018-10-07T22:47:22.444Z,81.30
2018-10-07T22:49:52.409Z,81.40
2018-10-07T22:52:22.803Z,81.50
2018-10-07T22:54:52.504Z,81.70
2018-10-07T22:57:22.439Z,81.70
2018-10-07T22:59:52.540Z,81.80
2018-10-07T23:02:22.465Z,81.90
2018-10-07T23:04:52.596Z,81.80
2018-10-07T23:07:22.542Z,81.70
2018-10-07T23:09:52.507Z,81.80
2018-10-07T23:12:22.441Z,82.00
2018-10-07T23:14:52.510Z,82.00
2018-10-07T23:17:22.520Z,81.90
2018-10-07T23:19:52.530Z,81.90
2018-10-07T23:22:22.585Z,82.00
2018-10-07T23:24:52.631Z,82.00
2018-10-07T23:27:22.481Z,82.10
2018-10-07T23:29:52.479Z,82.20
2018-10-07T23:32:22.574Z,82.20
2018-10-07T23:34:52.540Z,82.20
2018-10-07T23:37:22.786Z,82.10
2018-10-07T23:39:52.580Z,81.90
2018-10-07T23:42:22.630Z,81.90
2018-10-07T23:44:52.485Z,82.00
2018-10-07T23:47:22.582Z,82.10
2018-10-07T23:49:52.587Z,82.00
2018-10-07T23:52:22.658Z,81.90
2018-10-07T23:54:52.716Z,82.40
2018-10-07T23:57:22.685Z,82.20
2018-10-07T23:59:52.668Z,82.60
